LTBR METAR and TAF | Updated Today

LTBR METAR

Bursa Yenişehir Airport

Observation time: 27 min. ago

LTBR 251850Z VRB01KT CAVOK 19/14 Q1018 NOSIG RMK RWY07 VRB02KT

Need help? Read our tutorial on how to read METARs or read the parsed version below.

Bursa Yenişehir Airport (LTBR) METAR

  • Weather conditions on Wed, 25 May 2022 18:50:00 +0000 (27 min. ago):
  • Present conditions: Dry
  • Clouds: Clear skies
  • Visibility: Greater than 10 km
  • Wind: Variable at 1 knots
  • Temperature: 19 celsius
  • Dew point: 14 celsius
  • Pressure: 1018 millibars
  • Remarks: RWY07 VRB02KT


Useful to know...

LTBR TAF

Bursa Yenişehir Airport

TAF LTBR 251640Z 2518/2618 VRB02KT CAVOK PROB30 2604/2606 4000 BR BECMG 2609/2612 34012KT FEW035 BECMG 2616/2618 VRB02KT
Observation time: 2:37 hr. ago
Need help? Read our tutorial on how to read TAFs or read the parsed version below.

Parsed version of TAF for Bursa Yenişehir Airport (LTBR)

  • From 25 May at 18:00 UTC, to day 26 of the month at 18:00 UTC
  • Visibility: Greater than 10 km
  • Wind: Variable at 2
  • From 26 May at 04:00 UTC, to day 26 of the month at 06:00 UTC
    Probability of 30%
  • Visibility: 4000 meters
  • Other: Mist
  • Expected to arise soon, from 26 May at 09:00 UTC, to day 26 of the month at 12:00 UTC
  • Clouds: A few at 1067 meters
  • Wind: 340 degrees at 12
  • Expected to arise soon, from 26 May at 16:00 UTC, to day 26 of the month at 18:00 UTC
  • Wind: Variable at 2